Becker, MN

10:48 PM CST on January 28, 2015 (GMT -0600)
Nelson Sub Div | Change Station
CLOSE
Current Station
Personal Weather Station
Location: Big Lake, MN
Elevation: 945 ft
Nearby Weather Stations
Active Advisory: Freezing Rain Advisory

Elev 945 ft 45.34 °N, 93.76 °W | Updated 7 minutes ago

Fog
Fog
29.3 °F
Feels Like 24 °F
N
4.7
Wind Variable Wind from NW

Today
High -- | Low -- °F
--% Chance of Precip.
Yesterday
High -- | Low -- °F
Precip. -- in
7:40 AM 5:16 PM
Waxing Gibbous, 71% visible
Pressure 29.88 in
Visibility 1.8 miles
Clouds Overcast 200 ft
Windchill 24 °F
Dew Point 28 °F
Humidity 95%
Rainfall 0.00 in
Snow Depth Not available.
UV 0 out of 12
Pollen .10 out of 12
Air Quality Not available.
Flu Activity Not available.
METAR KMGG 290436Z AUTO 32005KT 1 3/4SM BR OVC002 M01/M01 A2988 RMK AO2 T10061008

More Conditions Fewer Conditions

Pressure 29.88 in
Visibility 1.8 miles
Clouds Overcast 200 ft
Windchill 24 °F
Dew Point 28 °F
Humidity 95%
Rainfall 0.00 in
Snow Depth Not available.
UV 0 out of 12
Pollen .10 out of 12
Air Quality Not available.
Flu Activity Not available.
METAR KMGG 290436Z AUTO 32005KT 1 3/4SM BR OVC002 M01/M01 A2988 RMK AO2 T10061008

More Conditions Fewer Conditions

10-Day Weather Forecast

Almanac

Astronomy

Jan. 28, 2015 Rise Set
Actual Time
Civil Twilight
Nautical Twilight
Astronomical Twilight
Moon
Length of Visible Light
Length of Day
Tomorrow will be .
, % of the Moon is Illuminated

Today's Extremes

State Highs State Lows

Community

WunderPhotos

Upload Photos

1,791,350 photos uploaded!

WunderBlogs® & News

Nearby

Air Quality

  Air Quality AQ Index Pollutant
Not available.

Snow Depth

Station Depth Elevation

Earthquake Activity

City Distance Mag. Time & Date
Minimum magnitude displayed is 2.5.

Coastal Water Temperatures

Place Temperature

Nearby Weather Stations